Shabla, Bulgaria
Current Conditions -  °F | °C
As of 12:00 AM on Saturday 25 Oct 2014 (Local Time) from LBWN Reporting Station
Overcast Overcast  
Wind Chill: 36°   Ceiling: 600
Heat Index: 45°   Visibility: 6mi
Dew Point: 43°   Wind: 25mph
Humidity: 93%   Direction: 20°NNE
Pressure: 30"   Gusts: 36mph
Location:  43.54°N, 28.54°E
Report Text: LBWN 242100Z 02011G16MPS 9999 OVC006 07/06 Q1016 NOSIG
Loading
Personal Weather Stations






























Interactive Weather Map
Tropical Storm Tracking
New forecast layout! Learn more

10-Day Weather Forecast

Advertisements
Track Severe Weather on mobile